Time;durP1;ratioP1;P1;durP2;ratioP2;P2;SDS_P1;SDS_P2;PMS_P1;PMS_P2;Temp;Humidity;BMP_temperature;BMP_pressure;BME280_temperature;BME280_humidity;BME280_pressure;Samples;Min_cycle;Max_cycle;Signal;HPM_P1;HPM_P2
2023/07/22 00:02:23;;;;;;;12.07;4.75;;;;;;;24.42;61.83;94767.78;5005623;28;20172;-77
2023/07/22 00:04:52;;;;;;;13.02;4.40;;;;;;;24.40;61.15;94771.88;5016201;28;20176;-77
2023/07/22 00:07:18;;;;;;;14.05;5.95;;;;;;;24.48;61.41;94786.53;5021516;28;20203;-77
2023/07/22 00:09:43;;;;;;;12.90;6.97;;;;;;;24.56;61.90;94800.06;5021209;28;20632;-77
2023/07/22 00:12:09;;;;;;;13.20;7.57;;;;;;;24.55;62.51;94800.41;5021595;28;20180;-77
2023/07/22 00:14:41;;;;;;;17.55;7.30;;;;;;;24.55;62.44;94795.03;5018808;28;20196;-77
2023/07/22 00:17:07;;;;;;;9.32;5.85;;;;;;;24.26;62.81;94750.34;5018918;28;20581;-77
2023/07/22 00:19:33;;;;;;;14.43;5.07;;;;;;;24.51;62.54;94788.63;5021544;28;20183;-77
2023/07/22 00:21:59;;;;;;;9.85;4.45;;;;;;;24.52;62.00;94806.38;5020325;28;20169;-77
2023/07/22 00:24:24;;;;;;;10.15;5.05;;;;;;;24.46;62.62;94804.88;5018756;28;20617;-77
2023/07/22 00:26:50;;;;;;;12.25;6.72;;;;;;;24.35;62.88;94788.94;5021644;28;20175;-77
2023/07/22 00:29:16;;;;;;;10.10;5.07;;;;;;;24.42;62.36;94807.38;5001557;28;20244;-77
2023/07/22 00:31:42;;;;;;;10.90;6.32;;;;;;;24.46;62.56;94811.06;5003842;28;20555;-77
2023/07/22 00:34:08;;;;;;;10.52;5.25;;;;;;;24.37;62.59;94794.03;5022450;28;20226;-78
2023/07/22 00:36:33;;;;;;;13.05;4.95;;;;;;;24.48;62.92;94799.97;5017827;28;20566;-78
2023/07/22 00:38:58;;;;;;;10.63;4.90;;;;;;;24.38;63.39;94793.72;5021142;28;20857;-77
2023/07/22 00:41:24;;;;;;;8.57;4.70;;;;;;;24.41;63.84;94801.19;5027181;28;20245;-77
2023/07/22 00:43:49;;;;;;;10.02;4.50;;;;;;;24.33;64.43;94793.81;5027356;28;20179;-78
2023/07/22 00:46:15;;;;;;;10.63;5.07;;;;;;;24.34;64.77;94803.47;5025183;28;20675;-77
2023/07/22 00:48:41;;;;;;;14.40;5.28;;;;;;;24.39;63.89;94814.13;5023181;28;20165;-77
2023/07/22 00:51:06;;;;;;;10.10;5.43;;;;;;;24.21;63.55;94792.72;5027271;28;20180;-78
2023/07/22 00:53:32;;;;;;;10.45;5.18;;;;;;;24.26;64.31;94806.88;5022888;28;20306;-77
2023/07/22 00:55:57;;;;;;;11.82;5.10;;;;;;;24.32;64.23;94821.81;5021380;28;20189;-77
2023/07/22 00:58:22;;;;;;;14.35;4.95;;;;;;;24.24;63.93;94800.19;5023721;28;20534;-77
2023/07/22 01:00:48;;;;;;;7.97;4.25;;;;;;;24.21;64.15;94809.66;5022700;28;20183;-77
2023/07/22 01:03:14;;;;;;;9.75;4.78;;;;;;;24.05;64.60;94800.22;5025124;28;20188;-77
2023/07/22 01:05:41;;;;;;;10.07;4.85;;;;;;;24.05;64.95;94795.63;5020735;28;20184;-77
2023/07/22 01:08:06;;;;;;;7.30;5.00;;;;;;;23.90;65.21;94762.84;5024725;28;20179;-77
2023/07/22 01:10:32;;;;;;;9.55;5.05;;;;;;;24.13;65.29;94798.75;5017456;28;20258;-77
2023/07/22 01:12:57;;;;;;;8.82;5.45;;;;;;;24.06;65.11;94782.97;5025447;28;20571;-77
2023/07/22 01:15:24;;;;;;;15.73;5.30;;;;;;;24.14;65.22;94784.97;5024741;28;20192;-77
2023/07/22 01:17:50;;;;;;;11.18;6.07;;;;;;;24.06;65.64;94778.41;5027119;28;20175;-77
2023/07/22 01:20:18;;;;;;;10.75;5.00;;;;;;;24.00;65.61;94781.50;5024168;28;20182;-77
2023/07/22 01:22:52;;;;;;;10.00;4.90;;;;;;;23.97;65.24;94776.69;5023085;28;20643;-77
2023/07/22 01:25:19;;;;;;;7.80;4.80;;;;;;;23.91;65.29;94764.44;5031010;28;20314;-77
2023/07/22 01:27:44;;;;;;;11.55;5.30;;;;;;;24.05;65.48;94790.25;5022182;28;20176;-77
2023/07/22 01:30:10;;;;;;;11.80;4.75;;;;;;;24.07;65.25;94777.31;5023107;28;20182;-77
2023/07/22 01:32:35;;;;;;;9.73;4.82;;;;;;;24.08;65.44;94780.81;5022100;28;20203;-77
2023/07/22 01:35:01;;;;;;;9.88;4.72;;;;;;;24.10;65.86;94784.00;5026794;28;20223;-77
2023/07/22 01:37:26;;;;;;;9.88;4.88;;;;;;;23.94;66.07;94766.53;5029445;28;20549;-77
2023/07/22 01:39:53;;;;;;;10.02;5.30;;;;;;;23.96;66.50;94778.59;5030291;28;20202;-77
2023/07/22 01:42:18;;;;;;;12.82;5.57;;;;;;;23.91;66.12;94777.88;5023678;28;20168;-77
2023/07/22 01:44:43;;;;;;;10.45;5.72;;;;;;;23.84;66.11;94777.47;5034595;28;20259;-77
2023/07/22 01:47:09;;;;;;;12.32;5.20;;;;;;;23.87;66.80;94771.50;5034076;28;20172;-77
2023/07/22 01:49:34;;;;;;;9.70;5.45;;;;;;;23.89;66.90;94769.31;5026330;28;20594;-77
2023/07/22 01:52:00;;;;;;;13.15;6.53;;;;;;;23.87;66.67;94760.75;5028276;28;20705;-77
2023/07/22 01:54:26;;;;;;;11.32;4.95;;;;;;;23.87;66.76;94769.59;5031416;28;20168;-77
2023/07/22 01:56:51;;;;;;;14.13;6.57;;;;;;;23.88;66.80;94773.88;5026600;28;20164;-77
2023/07/22 01:59:16;;;;;;;12.23;5.60;;;;;;;23.67;66.91;94738.50;5029908;28;20171;-77
2023/07/22 02:01:42;;;;;;;14.40;6.95;;;;;;;23.76;66.49;94753.97;5008685;28;20219;-77
2023/07/22 02:04:07;;;;;;;19.63;6.55;;;;;;;23.68;66.65;94772.38;5031931;28;20187;-77
2023/07/22 02:06:32;;;;;;;14.73;5.78;;;;;;;23.51;67.33;94750.63;5027491;28;20168;-77
2023/07/22 02:08:58;;;;;;;10.27;5.40;;;;;;;23.50;67.85;94762.47;5028643;28;20194;-77
2023/07/22 02:11:23;;;;;;;17.17;6.60;;;;;;;23.54;67.82;94760.75;5027346;28;20208;-77
2023/07/22 02:13:49;;;;;;;10.70;5.35;;;;;;;23.58;68.13;94769.03;5029022;28;20180;-77
2023/07/22 02:16:14;;;;;;;13.38;5.70;;;;;;;23.52;68.09;94772.91;5029602;28;20249;-77
2023/07/22 02:18:39;;;;;;;11.82;5.15;;;;;;;23.37;68.24;94755.09;5019777;28;20172;-77
2023/07/22 02:21:05;;;;;;;10.27;5.10;;;;;;;23.35;68.64;94751.13;5025260;28;20227;-77
2023/07/22 02:23:30;;;;;;;17.67;5.93;;;;;;;23.39;68.67;94757.50;5026925;28;20263;-77
2023/07/22 02:25:56;;;;;;;15.00;5.97;;;;;;;23.31;68.52;94758.97;5029116;28;20177;-77
2023/07/22 02:28:23;;;;;;;10.40;5.35;;;;;;;23.32;68.85;94768.63;5013556;28;20183;-78
2023/07/22 02:30:52;;;;;;;10.93;5.55;;;;;;;23.38;69.10;94780.88;5015286;28;20675;-78
2023/07/22 02:33:19;;;;;;;13.80;5.80;;;;;;;23.37;69.22;94781.97;5015181;28;20176;-78
2023/07/22 02:35:46;;;;;;;18.85;6.07;;;;;;;23.35;69.02;94791.44;5025617;28;20228;-78
2023/07/22 02:38:12;;;;;;;11.98;4.90;;;;;;;23.30;69.15;94789.59;5025948;28;20195;-78
2023/07/22 02:40:37;;;;;;;13.90;5.50;;;;;;;23.04;69.11;94748.91;5025327;28;20183;-78
2023/07/22 02:43:03;;;;;;;10.95;6.63;;;;;;;23.18;70.10;94787.34;5026064;28;20211;-78
2023/07/22 02:45:30;;;;;;;10.57;5.07;;;;;;;23.19;70.27;94790.84;5027945;28;20651;-78
2023/07/22 02:47:56;;;;;;;11.63;5.50;;;;;;;23.17;69.77;94783.09;5025847;28;20195;-78
2023/07/22 02:50:23;;;;;;;8.20;5.50;;;;;;;23.14;69.68;94791.72;5032743;28;20176;-78
2023/07/22 02:52:48;;;;;;;17.00;5.85;;;;;;;22.92;68.93;94762.75;5023777;28;20241;-78
2023/07/22 02:55:20;;;;;;;7.45;5.10;;;;;;;23.00;69.29;94788.19;5026776;28;20196;-78
2023/07/22 02:57:47;;;;;;;10.88;5.93;;;;;;;22.99;69.63;94789.25;5021147;28;20187;-78
2023/07/22 03:00:17;;;;;;;13.30;6.35;;;;;;;22.95;70.18;94782.88;5028580;28;20263;-78
2023/07/22 03:02:42;;;;;;;10.68;5.70;;;;;;;23.05;69.06;94795.34;5021669;28;20594;-78
2023/07/22 03:05:08;;;;;;;14.55;5.85;;;;;;;23.00;69.66;94790.88;5032357;28;20258;-78
2023/07/22 03:07:38;;;;;;;10.35;5.75;;;;;;;23.03;69.72;94800.22;5032333;28;20179;-78
2023/07/22 03:10:05;;;;;;;20.75;9.13;;;;;;;22.96;69.59;94773.72;5032703;28;20237;-78
2023/07/22 03:12:31;;;;;;;17.60;8.60;;;;;;;22.98;69.48;94792.22;5010105;28;20666;-78
2023/07/22 03:14:57;;;;;;;18.67;6.97;;;;;;;23.01;69.61;94786.25;5032221;28;20433;-78
2023/07/22 03:17:22;;;;;;;14.98;7.65;;;;;;;23.03;69.96;94792.94;5020025;28;20177;-78
2023/07/22 03:19:48;;;;;;;13.55;5.15;;;;;;;22.98;70.03;94786.88;5028083;28;20176;-78
2023/07/22 03:22:15;;;;;;;17.48;5.85;;;;;;;22.98;70.24;94787.66;5010357;28;20236;-78
2023/07/22 03:24:41;;;;;;;14.75;5.88;;;;;;;22.99;70.09;94791.16;5020038;28;20188;-78
2023/07/22 03:27:07;;;;;;;13.82;5.85;;;;;;;22.97;69.90;94796.00;5024915;28;20347;-78
2023/07/22 03:29:32;;;;;;;10.52;5.75;;;;;;;22.89;70.62;94789.41;5024062;28;20181;-78
2023/07/22 03:31:59;;;;;;;18.38;6.55;;;;;;;22.85;69.56;94785.69;5024412;28;20241;-78
2023/07/22 03:34:26;;;;;;;17.77;7.22;;;;;;;22.98;69.99;94809.16;5009190;28;20315;-78
2023/07/22 03:36:52;;;;;;;21.02;6.60;;;;;;;23.05;69.94;94809.59;5023004;28;20179;-78
2023/07/22 03:39:17;;;;;;;12.15;5.78;;;;;;;23.09;70.07;94817.88;5025175;28;20553;-78
2023/07/22 03:41:45;;;;;;;15.15;5.45;;;;;;;23.00;70.38;94795.44;5006705;28;20671;-78
2023/07/22 03:44:10;;;;;;;15.23;6.65;;;;;;;23.02;70.22;94806.66;5023068;28;20206;-83
2023/07/22 03:46:36;;;;;;;14.13;6.45;;;;;;;23.17;70.30;94826.06;5004339;28;20251;-83
2023/07/22 03:49:01;;;;;;;14.52;6.43;;;;;;;23.14;69.76;94809.72;5021960;28;20172;-81
2023/07/22 03:51:26;;;;;;;14.07;5.70;;;;;;;23.09;69.21;94813.28;5012475;28;20319;-80
2023/07/22 03:53:52;;;;;;;14.05;5.93;;;;;;;23.10;69.28;94819.44;5012666;28;20210;-80
2023/07/22 03:56:17;;;;;;;10.02;5.82;;;;;;;23.27;69.63;94838.53;5012399;28;20573;-80
2023/07/22 03:58:42;;;;;;;9.15;4.93;;;;;;;23.17;68.65;94811.84;5012583;28;20175;-80
2023/07/22 04:01:11;;;;;;;21.02;6.75;;;;;;;23.48;68.42;94842.53;5012670;28;20168;-80
2023/07/22 04:03:36;;;;;;;11.25;5.70;;;;;;;23.52;68.86;94824.78;4994758;28;20174;-81
2023/07/22 04:06:02;;;;;;;10.60;5.18;;;;;;;23.80;69.25;94846.38;5012280;28;20544;-82
2023/07/22 04:08:27;;;;;;;18.95;5.53;;;;;;;23.89;69.45;94833.84;5012594;28;20157;-81
2023/07/22 04:10:54;;;;;;;13.25;5.20;;;;;;;24.03;68.71;94840.88;5012337;28;20683;-81
2023/07/22 04:13:19;;;;;;;10.45;5.32;;;;;;;24.11;68.72;94830.53;5012373;28;20647;-81
2023/07/22 04:15:44;;;;;;;10.95;5.65;;;;;;;24.30;68.01;94840.13;5023445;28;20245;-81
2023/07/22 04:18:10;;;;;;;14.57;7.03;;;;;;;24.47;66.60;94844.16;5026027;28;20169;-76
2023/07/22 04:20:35;;;;;;;10.80;5.38;;;;;;;24.59;65.43;94836.38;5025926;28;20681;-78
2023/07/22 04:23:01;;;;;;;12.27;4.97;;;;;;;24.56;65.16;94802.00;5022690;28;20196;-78
2023/07/22 04:25:26;;;;;;;12.70;5.07;;;;;;;24.95;65.16;94844.59;5028152;28;20175;-78
2023/07/22 04:27:52;;;;;;;9.25;4.82;;;;;;;25.05;65.69;94839.78;5026344;28;20172;-77
2023/07/22 04:30:20;;;;;;;14.27;5.72;;;;;;;25.26;66.28;94856.28;5026026;28;20539;-77
2023/07/22 04:32:49;;;;;;;13.77;5.63;;;;;;;25.28;65.44;94832.53;5024846;28;20173;-77
2023/07/22 04:35:16;;;;;;;18.15;5.82;;;;;;;25.60;65.11;94855.84;5027073;28;20224;-78
2023/07/22 04:37:42;;;;;;;15.98;9.25;;;;;;;25.76;63.50;94859.78;5026941;28;20525;-77
2023/07/22 04:40:11;;;;;;;8.38;4.88;;;;;;;25.90;62.55;94848.94;5025813;28;20226;-78
2023/07/22 04:42:37;;;;;;;11.05;7.55;;;;;;;26.23;61.65;94860.25;5000442;28;20176;-77
2023/07/22 04:45:03;;;;;;;11.45;5.53;;;;;;;26.50;61.90;94870.91;5023186;28;20175;-78
2023/07/22 04:47:28;;;;;;;12.90;5.40;;;;;;;26.74;61.20;94854.31;5029591;28;20184;-78
2023/07/22 04:49:53;;;;;;;15.07;9.80;;;;;;;27.06;60.76;94860.50;5017388;28;20169;-76
2023/07/22 04:52:19;;;;;;;15.95;6.18;;;;;;;27.32;59.01;94861.34;5029063;28;20683;-76
2023/07/22 04:54:47;;;;;;;12.63;5.15;;;;;;;27.52;57.62;94851.81;5024517;28;20173;-76
2023/07/22 04:57:12;;;;;;;12.63;5.60;;;;;;;27.94;57.15;94867.28;5001188;28;20539;-76
2023/07/22 04:59:38;;;;;;;11.80;6.32;;;;;;;28.19;56.70;94852.16;5007000;28;20183;-76
2023/07/22 05:02:04;;;;;;;10.95;4.68;;;;;;;28.51;56.17;94853.50;5022845;28;20239;-76
2023/07/22 05:04:29;;;;;;;18.75;9.95;;;;;;;28.95;55.08;94883.97;5022752;28;20176;-77
2023/07/22 05:06:54;;;;;;;12.95;6.03;;;;;;;29.25;53.77;94864.66;5024070;28;20535;-77
2023/07/22 05:09:20;;;;;;;10.98;6.32;;;;;;;29.68;52.74;94873.66;5028087;28;20206;-82
2023/07/22 05:11:45;;;;;;;11.27;4.88;;;;;;;30.12;51.65;94883.84;5024055;28;20249;-80
2023/07/22 05:14:11;;;;;;;8.07;4.93;;;;;;;30.41;50.78;94866.63;5024785;28;20937;-80
2023/07/22 05:16:36;;;;;;;16.77;5.68;;;;;;;30.82;48.94;94873.88;5024371;28;20283;-79
2023/07/22 05:19:02;;;;;;;12.05;5.55;;;;;;;31.23;47.96;94883.75;5024367;28;20164;-82
2023/07/22 05:21:27;;;;;;;10.20;5.38;;;;;;;31.49;47.06;94867.06;5025262;28;20189;-81
2023/07/22 05:23:52;;;;;;;9.32;5.38;;;;;;;31.95;46.31;94881.28;5023480;28;20264;-82
2023/07/22 05:26:18;;;;;;;11.20;5.50;;;;;;;32.21;46.44;94868.03;5027176;28;20176;-81
2023/07/22 05:28:43;;;;;;;29.63;6.35;;;;;;;32.63;45.32;94878.50;5022568;28;20183;-81
2023/07/22 05:31:09;;;;;;;12.65;5.93;;;;;;;33.07;43.41;94895.63;5023909;28;20183;-80
2023/07/22 05:33:34;;;;;;;12.45;7.88;;;;;;;33.41;42.48;94885.94;5026036;28;20180;-83
2023/07/22 05:35:59;;;;;;;16.13;9.02;;;;;;;33.81;42.19;94893.91;5021780;28;20216;-82
2023/07/22 05:38:25;;;;;;;13.13;6.95;;;;;;;34.03;41.58;94885.78;5019411;28;20165;-82
2023/07/22 05:40:53;;;;;;;9.30;5.55;;;;;;;34.33;41.43;94871.56;5019747;28;20307;-81
2023/07/22 05:43:18;;;;;;;10.20;5.35;;;;;;;34.43;41.70;94871.75;5014518;28;20175;-82
2023/07/22 05:45:44;;;;;;;9.85;6.00;;;;;;;34.91;40.40;94896.09;5014672;28;20153;-81
2023/07/22 05:48:10;;;;;;;11.23;5.80;;;;;;;34.99;39.96;94875.91;5014832;28;20178;-81
2023/07/22 05:50:36;;;;;;;13.88;5.90;;;;;;;35.38;39.38;94901.97;5017829;28;20266;-81
2023/07/22 05:53:01;;;;;;;10.18;5.45;;;;;;;35.15;40.49;94877.34;5022965;28;20192;-82
2023/07/22 05:55:27;;;;;;;9.77;5.90;;;;;;;35.37;39.87;94894.94;5004663;28;20802;-82
2023/07/22 05:57:52;;;;;;;13.73;7.03;;;;;;;35.41;38.99;94892.25;5025246;28;20168;-81
2023/07/22 06:00:18;;;;;;;9.38;6.28;;;;;;;35.33;39.80;94880.38;5024106;28;20168;-81
2023/07/22 06:02:44;;;;;;;9.02;5.97;;;;;;;35.38;40.62;94892.97;5022408;28;20165;-81
2023/07/22 06:05:09;;;;;;;10.95;5.63;;;;;;;35.44;38.65;94914.22;5016318;28;20170;-84
2023/07/22 06:07:35;;;;;;;20.45;6.57;;;;;;;35.47;38.77;94920.88;5029257;28;20569;-84
2023/07/22 06:10:00;;;;;;;11.63;6.10;;;;;;;35.11;39.76;94911.31;5024732;28;20172;-81
2023/07/22 06:12:26;;;;;;;14.32;7.72;;;;;;;34.88;42.01;94926.91;5022131;28;20230;-80
2023/07/22 06:14:51;;;;;;;15.73;8.60;;;;;;;34.81;41.73;94925.66;5022300;28;20198;-81
2023/07/22 06:17:17;;;;;;;13.13;6.38;;;;;;;34.72;41.32;94919.56;5022326;28;20659;-82
2023/07/22 06:19:42;;;;;;;11.48;7.15;;;;;;;34.47;40.60;94904.66;5025359;28;20192;-81
2023/07/22 06:22:07;;;;;;;9.57;5.93;;;;;;;34.32;41.44;94905.53;5024981;28;20186;-82
2023/07/22 06:24:33;;;;;;;11.30;5.43;;;;;;;34.18;42.84;94907.94;5022659;28;20177;-82
2023/07/22 06:26:58;;;;;;;15.85;8.13;;;;;;;34.46;42.03;94935.88;5007137;28;20187;-82
2023/07/22 06:29:23;;;;;;;10.35;6.22;;;;;;;34.47;41.50;94936.66;5021960;28;20175;-82
2023/07/22 06:31:49;;;;;;;9.00;6.18;;;;;;;34.56;42.33;94938.03;5018937;28;20173;-82
2023/07/22 06:34:15;;;;;;;12.98;5.57;;;;;;;34.56;42.19;94938.03;5023595;28;20555;-81
2023/07/22 06:36:40;;;;;;;9.13;5.75;;;;;;;34.61;40.82;94934.19;5024675;28;20557;-81
2023/07/22 06:39:05;;;;;;;13.25;6.93;;;;;;;33.76;41.72;94908.63;5022881;28;20230;-81
2023/07/22 06:41:31;;;;;;;10.90;5.82;;;;;;;33.51;44.03;94901.78;5023126;28;20588;-81
2023/07/22 06:43:56;;;;;;;12.27;5.65;;;;;;;33.82;44.21;94933.75;5026268;28;20254;-81
2023/07/22 06:46:22;;;;;;;9.52;5.55;;;;;;;33.92;43.34;94939.41;5025654;28;20186;-81
2023/07/22 06:48:47;;;;;;;15.35;5.20;;;;;;;33.80;43.94;94919.63;5021597;28;20662;-81
2023/07/22 06:51:12;;;;;;;11.23;5.63;;;;;;;33.56;42.87;94912.41;5024914;28;20648;-81
2023/07/22 06:53:38;;;;;;;10.00;5.93;;;;;;;33.52;43.74;94903.34;5023066;28;20214;-81
2023/07/22 06:56:04;;;;;;;15.07;5.95;;;;;;;33.32;42.99;94906.03;5028922;28;20202;-81
2023/07/22 06:58:30;;;;;;;9.40;5.25;;;;;;;33.38;43.37;94920.22;5019246;28;20971;-81
2023/07/22 07:00:55;;;;;;;9.65;5.57;;;;;;;33.48;43.52;94911.47;5023521;28;20165;-82
2023/07/22 07:03:21;;;;;;;11.27;5.68;;;;;;;33.57;43.74;94925.72;5020263;28;20172;-81
2023/07/22 07:05:54;;;;;;;10.30;5.28;;;;;;;32.69;43.43;94926.22;5026090;28;20180;-81
2023/07/22 07:08:20;;;;;;;7.68;5.13;;;;;;;32.08;45.69;94907.38;5023339;28;20164;-81
2023/07/22 07:10:45;;;;;;;6.80;5.28;;;;;;;32.12;47.74;94927.31;5025033;28;20238;-81
2023/07/22 07:13:11;;;;;;;11.85;5.53;;;;;;;32.68;44.56;94925.41;5024699;28;20226;-81
2023/07/22 07:15:36;;;;;;;11.68;6.22;;;;;;;32.32;44.38;94885.50;5026347;28;20220;-81
2023/07/22 07:18:01;;;;;;;11.02;5.38;;;;;;;32.77;45.08;94884.38;5021411;28;20226;-82
2023/07/22 07:20:27;;;;;;;10.13;6.13;;;;;;;33.26;44.04;94896.53;5032880;28;20171;-82
2023/07/22 07:22:52;;;;;;;12.32;6.93;;;;;;;33.59;43.49;94898.84;5032585;28;20678;-82
2023/07/22 07:25:18;;;;;;;15.27;5.78;;;;;;;33.71;42.83;94887.03;5031244;28;20168;-82
2023/07/22 07:27:43;;;;;;;12.75;6.15;;;;;;;33.29;43.15;94911.41;5031275;28;20203;-84
2023/07/22 07:30:09;;;;;;;15.68;6.45;;;;;;;32.94;43.07;94882.09;5032711;28;20156;-83
2023/07/22 07:32:35;;;;;;;12.75;5.97;;;;;;;32.95;43.15;94915.63;5031260;28;20685;-83
2023/07/22 07:35:01;;;;;;;10.27;6.45;;;;;;;32.45;45.14;94908.00;5032180;28;20233;-82
2023/07/22 07:37:26;;;;;;;13.50;6.40;;;;;;;32.17;45.57;94908.06;5030918;28;20258;-83
2023/07/22 07:39:52;;;;;;;11.13;7.40;;;;;;;31.97;45.48;94901.59;5032315;28;20187;-83
2023/07/22 07:42:17;;;;;;;18.30;7.28;;;;;;;32.38;45.60;94900.44;5032507;28;20611;-83
2023/07/22 07:44:43;;;;;;;12.48;5.97;;;;;;;32.49;45.24;94877.00;5014094;28;20175;-83
2023/07/22 07:47:08;;;;;;;12.07;6.57;;;;;;;32.97;43.60;94886.03;5030471;28;20229;-82
2023/07/22 07:49:34;;;;;;;10.70;6.32;;;;;;;33.42;45.26;94895.72;5031863;28;20156;-82
2023/07/22 07:51:59;;;;;;;9.65;6.47;;;;;;;33.94;44.01;94893.41;5031983;28;20678;-82
2023/07/22 07:54:24;;;;;;;12.68;7.05;;;;;;;34.58;42.73;94889.22;5032299;28;20549;-85
2023/07/22 07:56:50;;;;;;;13.23;6.75;;;;;;;34.35;41.29;94880.19;5031207;28;20638;-83
2023/07/22 07:59:15;;;;;;;14.55;6.32;;;;;;;34.68;41.03;94891.34;5013173;28;20168;-83
2023/07/22 08:01:41;;;;;;;15.20;6.88;;;;;;;34.70;41.58;94878.09;5023143;28;20568;-83
2023/07/22 08:04:08;;;;;;;13.20;6.18;;;;;;;35.06;41.35;94893.22;5002041;28;20183;-85
2023/07/22 08:06:33;;;;;;;17.17;7.15;;;;;;;34.59;40.67;94882.63;5025666;28;20159;-84
2023/07/22 08:08:59;;;;;;;20.02;9.07;;;;;;;34.25;40.87;94875.31;5030787;28;20160;-84
2023/07/22 08:11:24;;;;;;;11.93;6.72;;;;;;;34.40;40.81;94893.56;5031950;28;20175;-85
2023/07/22 08:13:51;;;;;;;13.07;6.30;;;;;;;34.75;41.83;94899.75;5027590;28;20175;-84
2023/07/22 08:16:17;;;;;;;12.90;6.70;;;;;;;35.11;41.33;94889.41;5017757;28;20196;-84
2023/07/22 08:18:43;;;;;;;10.43;6.50;;;;;;;35.55;40.59;94895.97;5023103;28;20342;-84
2023/07/22 08:21:09;;;;;;;21.65;6.13;;;;;;;35.80;40.88;94896.38;5020311;28;20645;-83
2023/07/22 08:23:36;;;;;;;12.45;6.07;;;;;;;35.55;39.56;94871.31;5025799;28;20168;-84
2023/07/22 08:26:04;;;;;;;15.85;6.78;;;;;;;35.64;40.48;94889.44;5031464;28;20187;-82
2023/07/22 08:28:30;;;;;;;19.38;7.65;;;;;;;35.00;40.35;94883.75;5019854;28;20171;-84
2023/07/22 08:30:56;;;;;;;9.95;6.40;;;;;;;34.57;41.90;94859.50;5022159;28;20567;-84
2023/07/22 08:33:23;;;;;;;11.02;6.97;;;;;;;34.70;41.15;94869.91;5019040;28;20183;-85
2023/07/22 08:35:52;;;;;;;17.52;7.47;;;;;;;34.43;41.71;94860.00;5022526;28;20223;-86
2023/07/22 08:38:18;;;;;;;21.02;8.75;;;;;;;34.24;42.70;94873.72;5016748;28;20184;-89
2023/07/22 08:40:44;;;;;;;14.45;7.22;;;;;;;33.93;43.21;94841.81;5018691;28;20569;-86
2023/07/22 08:43:11;;;;;;;12.82;6.43;;;;;;;34.05;44.91;94833.50;5018084;28;20655;-85
2023/07/22 08:45:38;;;;;;;19.17;9.00;;;;;;;34.35;44.03;94852.84;5021920;28;20168;-90
2023/07/22 08:48:07;;;;;;;13.05;6.75;;;;;;;34.55;45.63;94848.91;5004228;28;20176;-87
2023/07/22 08:50:53;;;;;;;12.57;7.13;;;;;;;34.50;42.45;94838.28;5022259;28;20176;-87
2023/07/22 08:53:23;;;;;;;14.05;7.28;;;;;;;33.75;43.03;94838.72;4998042;28;20179;-86
2023/07/22 08:55:49;;;;;;;14.10;7.72;;;;;;;33.43;43.94;94790.81;5021253;28;20194;-88
2023/07/22 08:58:16;;;;;;;27.25;6.78;;;;;;;33.75;43.43;94819.59;5016824;28;20195;-84
2023/07/22 09:00:42;;;;;;;15.30;6.80;;;;;;;33.40;43.10;94777.84;5021599;28;20169;-84
2023/07/22 09:03:08;;;;;;;14.73;6.47;;;;;;;33.57;44.02;94791.09;5022780;28;20187;-84
2023/07/22 09:05:35;;;;;;;32.97;6.93;;;;;;;34.04;43.67;94821.78;5005752;28;20222;-84
2023/07/22 09:08:03;;;;;;;13.98;6.85;;;;;;;33.68;43.63;94726.56;5009205;28;20560;-83
2023/07/22 09:10:29;;;;;;;12.38;6.63;;;;;;;34.17;42.55;94772.38;5022837;28;20187;-84
2023/07/22 09:12:55;;;;;;;13.50;7.28;;;;;;;33.85;42.59;94797.19;5024403;28;20168;-85
2023/07/22 09:15:23;;;;;;;15.55;7.78;;;;;;;33.62;45.21;94774.44;5027324;28;20196;-88
2023/07/22 09:17:49;;;;;;;16.70;7.00;;;;;;;33.99;43.21;94822.03;5025288;28;20177;-85
2023/07/22 09:20:14;;;;;;;14.88;7.03;;;;;;;33.61;42.42;94772.84;5020568;28;20245;-86
2023/07/22 09:22:48;;;;;;;11.45;6.78;;;;;;;33.84;42.45;94816.66;5022323;28;20714;-88
2023/07/22 09:25:24;;;;;;;13.20;6.65;;;;;;;33.69;44.02;94816.34;5004174;28;20183;-85
2023/07/22 09:27:52;;;;;;;18.80;6.70;;;;;;;33.83;43.04;94810.41;5020955;28;20262;-82
2023/07/22 09:30:39;;;;;;;13.80;6.70;;;;;;;33.95;43.41;94826.66;5016851;28;20172;-86
2023/07/22 09:33:06;;;;;;;21.85;6.55;;;;;;;34.00;45.54;94799.03;5021545;28;20176;-89
2023/07/22 09:35:44;;;;;;;15.27;7.28;;;;;;;34.25;44.61;94787.81;5002262;28;20384;-82
2023/07/22 09:38:10;;;;;;;15.50;7.95;;;;;;;34.41;42.14;94793.97;5010129;28;20220;-83
2023/07/22 09:40:35;;;;;;;15.27;7.45;;;;;;;34.67;42.82;94801.44;4995020;28;20189;-81
2023/07/22 09:43:02;;;;;;;15.90;6.97;;;;;;;34.75;41.77;94787.56;5016696;28;20676;-82
2023/07/22 09:45:30;;;;;;;21.40;6.35;;;;;;;34.89;40.37;94797.94;5022439;28;20709;-81
2023/07/22 09:47:56;;;;;;;13.82;6.78;;;;;;;34.79;40.41;94791.13;5004852;28;20596;-83
2023/07/22 09:50:27;;;;;;;17.42;6.40;;;;;;;34.59;40.96;94786.88;5009085;28;20175;-82
2023/07/22 09:52:59;;;;;;;20.75;6.10;;;;;;;34.69;41.06;94796.38;5020845;28;20194;-82
2023/07/22 09:55:30;;;;;;;16.60;6.53;;;;;;;34.66;41.63;94770.56;5010346;28;20184;-81
2023/07/22 09:58:00;;;;;;;21.48;6.88;;;;;;;34.89;40.47;94788.91;5026037;28;20184;-81
2023/07/22 10:00:29;;;;;;;17.35;6.70;;;;;;;34.79;40.63;94762.97;5017350;28;20673;-81
2023/07/22 10:02:57;;;;;;;17.83;6.13;;;;;;;34.96;40.33;94794.50;5014596;28;20222;-82
2023/07/22 10:05:24;;;;;;;18.52;6.32;;;;;;;34.96;37.62;94778.06;5012412;28;20251;-82
2023/07/22 10:07:52;;;;;;;15.57;6.55;;;;;;;34.99;40.28;94788.31;5016796;28;20190;-81
2023/07/22 10:10:20;;;;;;;12.77;6.15;;;;;;;35.06;40.33;94778.25;4996447;28;20291;-82
2023/07/22 10:12:46;;;;;;;25.05;7.97;;;;;;;34.84;38.85;94762.66;5018373;28;20608;-82
2023/07/22 10:15:13;;;;;;;31.27;6.60;;;;;;;34.92;39.37;94772.56;4999089;28;20201;-82
2023/07/22 10:17:40;;;;;;;14.30;5.30;;;;;;;34.67;37.04;94738.53;5007866;28;20190;-82
2023/07/22 10:20:07;;;;;;;24.08;5.70;;;;;;;34.79;38.19;94758.28;5012323;28;20186;-82
2023/07/22 10:22:37;;;;;;;13.75;5.38;;;;;;;35.00;37.24;94778.94;5011846;28;20176;-82
2023/07/22 10:25:09;;;;;;;21.30;4.95;;;;;;;35.07;37.47;94773.56;5024765;28;20182;-82
2023/07/22 10:27:35;;;;;;;21.13;5.78;;;;;;;35.14;37.22;94779.13;5020545;28;20576;-81
2023/07/22 10:30:02;;;;;;;12.50;4.63;;;;;;;35.16;37.85;94774.09;5016253;28;20251;-82
2023/07/22 10:32:46;;;;;;;13.43;4.80;;;;;;;35.19;37.49;94778.84;5005249;28;20182;-83
2023/07/22 10:35:23;;;;;;;24.05;5.72;;;;;;;34.91;36.64;94770.19;5019410;28;20224;-82
2023/07/22 10:37:49;;;;;;;22.42;6.20;;;;;;;34.98;37.75;94762.88;5020001;28;20270;-82
2023/07/22 10:40:30;;;;;;;20.33;5.22;;;;;;;34.98;36.56;94773.03;5022220;28;20730;-83
2023/07/22 10:43:05;;;;;;;22.33;5.88;;;;;;;35.02;37.46;94766.47;5021756;28;20585;-81
2023/07/22 10:45:39;;;;;;;24.20;5.68;;;;;;;35.08;37.42;94764.97;5028026;28;20178;-82
2023/07/22 10:48:10;;;;;;;19.55;6.25;;;;;;;35.17;39.16;94765.50;5020013;28;20191;-82
2023/07/22 10:50:40;;;;;;;21.67;6.70;;;;;;;35.29;38.94;94767.25;5020628;28;20175;-82
2023/07/22 10:53:09;;;;;;;17.27;5.35;;;;;;;35.25;36.73;94743.72;5021890;28;20200;-82
2023/07/22 10:56:14;;;;;;;23.38;5.70;;;;;;;35.39;37.06;94752.13;4997580;28;20567;-82
2023/07/22 10:58:46;;;;;;;20.00;5.38;;;;;;;35.49;37.00;94755.00;5015029;28;20187;-83
2023/07/22 11:01:29;;;;;;;21.40;5.63;;;;;;;35.56;35.38;94762.53;5023023;28;20247;-83
2023/07/22 11:04:12;;;;;;;18.67;5.40;;;;;;;35.53;34.93;94747.63;5017413;28;20255;-83
2023/07/22 11:06:43;;;;;;;18.40;6.07;;;;;;;35.64;34.16;94761.44;5019754;28;20544;-83
2023/07/22 11:09:27;;;;;;;15.32;5.03;;;;;;;35.63;34.57;94757.16;5017567;28;20165;-83
2023/07/22 11:11:56;;;;;;;23.30;6.47;;;;;;;35.65;35.90;94752.06;5012875;28;20609;-83
2023/07/22 11:14:24;;;;;;;29.23;6.05;;;;;;;35.71;36.26;94750.59;5012374;28;20173;-83
2023/07/22 11:16:50;;;;;;;20.42;5.35;;;;;;;35.65;35.30;94732.09;4995397;28;20250;-83
2023/07/22 11:19:17;;;;;;;13.20;5.05;;;;;;;35.75;34.35;94753.38;5017528;28;20172;-84
2023/07/22 11:21:48;;;;;;;19.25;5.15;;;;;;;35.70;34.78;94750.97;5024863;28;20325;-86
2023/07/22 11:24:15;;;;;;;25.40;5.93;;;;;;;35.76;34.32;94750.28;5019630;28;20188;-85
2023/07/22 11:26:40;;;;;;;17.70;6.22;;;;;;;35.49;34.82;94699.44;5021681;28;20168;-84